Time;durP1;ratioP1;P1;durP2;ratioP2;P2;SDS_P1;SDS_P2;PMS_P1;PMS_P2;Temp;Humidity;BMP_temperature;BMP_pressure;BME280_temperature;BME280_humidity;BME280_pressure;Samples;Min_cycle;Max_cycle;Signal;HPM_P1;HPM_P2
2022/12/31 00:01:12;;;;;;;12.98;2.72;;;;;;;;;;5052448;28;20033;-36
2022/12/31 00:03:39;;;;;;;13.02;2.35;;;;;;;;;;5052357;28;20032;-36
2022/12/31 00:06:21;;;;;;;13.80;2.67;;;;;;;;;;5052334;28;20032;-35
2022/12/31 00:08:49;;;;;;;16.80;2.88;;;;;;;;;;5034403;28;20037;-35
2022/12/31 00:11:16;;;;;;;13.15;2.63;;;;;;;;;;5051773;28;20552;-35
2022/12/31 00:13:45;;;;;;;13.18;2.22;;;;;;;;;;5052197;28;20033;-35
2022/12/31 00:16:16;;;;;;;14.63;2.60;;;;;;;;;;5052053;28;20028;-35
2022/12/31 00:18:47;;;;;;;18.17;3.05;;;;;;;;;;5052209;28;20029;-35
2022/12/31 00:21:14;;;;;;;15.00;3.03;;;;;;;;;;5052136;28;20028;-35
2022/12/31 00:23:41;;;;;;;10.88;2.67;;;;;;;;;;5051972;28;20033;-35
2022/12/31 00:26:10;;;;;;;14.50;2.55;;;;;;;;;;5052105;28;20114;-35
2022/12/31 00:28:37;;;;;;;15.15;3.08;;;;;;;;;;5052110;28;20433;-35
2022/12/31 00:31:11;;;;;;;16.23;2.80;;;;;;;;;;5051647;28;20049;-35
2022/12/31 00:33:38;;;;;;;14.70;2.75;;;;;;;;;;5051885;28;20032;-35
2022/12/31 00:36:06;;;;;;;13.07;2.35;;;;;;;;;;5051820;28;20117;-35
2022/12/31 00:38:33;;;;;;;15.07;2.95;;;;;;;;;;5051874;28;20099;-35
2022/12/31 00:41:00;;;;;;;12.38;2.60;;;;;;;;;;5051964;28;20036;-35
2022/12/31 00:43:27;;;;;;;22.60;3.22;;;;;;;;;;5051652;28;20077;-35
2022/12/31 00:45:54;;;;;;;16.30;2.25;;;;;;;;;;5051860;28;20028;-35
2022/12/31 00:48:21;;;;;;;18.25;2.88;;;;;;;;;;5051913;28;20029;-35
2022/12/31 00:50:48;;;;;;;11.30;2.88;;;;;;;;;;5051730;28;20036;-35
2022/12/31 00:53:15;;;;;;;15.32;2.88;;;;;;;;;;5051755;28;20029;-35
2022/12/31 00:55:42;;;;;;;16.13;2.42;;;;;;;;;;5051751;28;20032;-35
2022/12/31 00:58:09;;;;;;;14.85;2.95;;;;;;;;;;5051719;28;20029;-35
2022/12/31 01:00:37;;;;;;;15.63;2.92;;;;;;;;;;5051737;28;20029;-35
2022/12/31 01:03:04;;;;;;;22.45;3.33;;;;;;;;;;5053858;28;20422;-35
2022/12/31 01:05:31;;;;;;;20.27;3.47;;;;;;;;;;5037803;28;20090;-35
2022/12/31 01:07:58;;;;;;;20.05;3.78;;;;;;;;;;5055770;28;20021;-35
2022/12/31 01:13:11;;;;;;;22.17;3.90;;;;;;;;;;5055546;28;20133;-35
2022/12/31 01:15:38;;;;;;;27.48;3.67;;;;;;;;;;5055580;28;20025;-35
2022/12/31 01:18:06;;;;;;;26.65;4.50;;;;;;;;;;5055457;28;20032;-35
2022/12/31 01:20:37;;;;;;;28.10;5.05;;;;;;;;;;5055403;28;20041;-35
2022/12/31 01:23:04;;;;;;;30.30;4.70;;;;;;;;;;5055334;28;20079;-35
2022/12/31 01:25:31;;;;;;;27.85;5.15;;;;;;;;;;5055444;28;20083;-35
2022/12/31 01:27:58;;;;;;;30.38;5.90;;;;;;;;;;5055299;28;20487;-35
2022/12/31 01:30:25;;;;;;;33.40;5.53;;;;;;;;;;5055182;28;20120;-35
2022/12/31 01:32:51;;;;;;;26.75;6.15;;;;;;;;;;5055115;28;20065;-35
2022/12/31 01:35:21;;;;;;;39.78;6.47;;;;;;;;;;5055124;28;20490;-35
2022/12/31 01:37:48;;;;;;;46.83;8.88;;;;;;;;;;5055187;28;20033;-35
2022/12/31 01:40:15;;;;;;;55.70;8.57;;;;;;;;;;5055098;28;20032;-35
2022/12/31 01:42:43;;;;;;;48.35;8.90;;;;;;;;;;5054511;28;20533;-35
2022/12/31 01:45:11;;;;;;;52.42;8.90;;;;;;;;;;5054910;28;20044;-35
2022/12/31 01:47:39;;;;;;;41.80;7.00;;;;;;;;;;5054934;28;20108;-35
2022/12/31 01:50:12;;;;;;;47.05;8.35;;;;;;;;;;5054787;28;20109;-35
2022/12/31 01:52:38;;;;;;;;;;;;;;;;;;5055282;28;20037;-35
2022/12/31 01:55:05;;;;;;;65.05;11.32;;;;;;;;;;5054699;28;19905;-35
2022/12/31 01:57:32;;;;;;;77.47;12.30;;;;;;;;;;5054688;28;20461;-35
2022/12/31 02:00:00;;;;;;;72.05;14.13;;;;;;;;;;5054689;28;20086;-35
2022/12/31 02:02:27;;;;;;;71.78;14.57;;;;;;;;;;5054625;28;20037;-35
2022/12/31 02:04:55;;;;;;;74.03;13.27;;;;;;;;;;5054571;28;20029;-35
2022/12/31 02:07:22;;;;;;;72.40;13.75;;;;;;;;;;5054526;28;20490;-35
2022/12/31 02:09:49;;;;;;;73.57;15.70;;;;;;;;;;5036514;28;20029;-35
2022/12/31 02:12:16;;;;;;;75.47;15.43;;;;;;;;;;5054507;28;20100;-35
2022/12/31 02:14:48;;;;;;;70.30;17.55;;;;;;;;;;5053783;28;20021;-35
2022/12/31 02:17:24;;;;;;;89.05;19.75;;;;;;;;;;5054285;28;20024;-35
2022/12/31 02:19:51;;;;;;;71.93;18.40;;;;;;;;;;5054249;28;20036;-35
2022/12/31 02:22:27;;;;;;;80.40;19.25;;;;;;;;;;5054182;28;20056;-35
2022/12/31 02:24:54;;;;;;;100.03;21.60;;;;;;;;;;5054173;28;20025;-35
2022/12/31 02:27:30;;;;;;;98.82;22.15;;;;;;;;;;5054098;28;20052;-35
2022/12/31 02:29:59;;;;;;;98.35;20.67;;;;;;;;;;5053971;28;20041;-35
2022/12/31 02:32:29;;;;;;;103.38;21.95;;;;;;;;;;5053890;28;20028;-35
2022/12/31 02:35:04;;;;;;;98.07;21.00;;;;;;;;;;5053948;28;20118;-35
2022/12/31 02:37:32;;;;;;;83.80;21.13;;;;;;;;;;5053924;28;20017;-35
2022/12/31 02:40:00;;;;;;;83.10;20.05;;;;;;;;;;5053804;28;20044;-35
2022/12/31 02:42:26;;;;;;;80.18;19.65;;;;;;;;;;5053769;28;20029;-35
2022/12/31 02:44:53;;;;;;;93.00;21.35;;;;;;;;;;5053650;28;20056;-35
2022/12/31 02:47:32;;;;;;;79.82;19.02;;;;;;;;;;5053826;28;20048;-35
2022/12/31 02:50:05;;;;;;;81.93;21.27;;;;;;;;;;5035744;28;20037;-35
2022/12/31 02:52:51;;;;;;;81.75;20.88;;;;;;;;;;5053579;28;20396;-35
2022/12/31 02:55:22;;;;;;;83.38;20.27;;;;;;;;;;5053553;28;20123;-35
2022/12/31 02:58:07;;;;;;;75.33;20.60;;;;;;;;;;5053550;28;20056;-35
2022/12/31 03:03:23;;;;;;;72.57;18.38;;;;;;;;;;5053364;28;20039;-35
2022/12/31 03:05:50;;;;;;;67.07;17.85;;;;;;;;;;5053351;28;20024;-35
2022/12/31 03:08:23;;;;;;;82.07;19.13;;;;;;;;;;5053404;28;20103;-35
2022/12/31 03:10:50;;;;;;;81.32;19.65;;;;;;;;;;5053244;28;20495;-35
2022/12/31 03:13:17;;;;;;;67.60;17.63;;;;;;;;;;5053178;28;20074;-35
2022/12/31 03:15:44;;;;;;;81.28;18.95;;;;;;;;;;5053144;28;20057;-35
2022/12/31 03:18:11;;;;;;;69.05;17.13;;;;;;;;;;5053130;28;20509;-35
2022/12/31 03:23:30;;;;;;;55.83;14.70;;;;;;;;;;5053201;28;20099;-35
2022/12/31 03:25:57;;;;;;;59.45;14.50;;;;;;;;;;5052003;28;20438;-35
2022/12/31 03:28:28;;;;;;;55.67;14.38;;;;;;;;;;5053010;28;20029;-35
2022/12/31 03:30:57;;;;;;;55.38;13.40;;;;;;;;;;5052952;28;20099;-35
2022/12/31 03:33:24;;;;;;;55.55;13.52;;;;;;;;;;5052867;28;20024;-35
2022/12/31 03:35:52;;;;;;;58.50;12.07;;;;;;;;;;5052926;28;20479;-35
2022/12/31 03:38:19;;;;;;;44.85;12.25;;;;;;;;;;5052312;28;20048;-35
2022/12/31 03:40:48;;;;;;;45.97;12.88;;;;;;;;;;5052796;28;20033;-35
2022/12/31 03:43:15;;;;;;;47.40;12.38;;;;;;;;;;5052476;28;20053;-35
2022/12/31 03:45:42;;;;;;;45.75;11.35;;;;;;;;;;5052717;28;20029;-35
2022/12/31 03:48:09;;;;;;;52.92;12.00;;;;;;;;;;5052635;28;20029;-35
2022/12/31 03:50:37;;;;;;;43.97;11.05;;;;;;;;;;5052481;28;20040;-35
2022/12/31 03:53:04;;;;;;;45.20;12.07;;;;;;;;;;5052543;28;20482;-35
2022/12/31 03:55:31;;;;;;;37.45;10.00;;;;;;;;;;5052576;28;20041;-35
2022/12/31 03:57:58;;;;;;;45.47;11.02;;;;;;;;;;5052474;28;20040;-35
2022/12/31 04:00:25;;;;;;;43.28;10.95;;;;;;;;;;5052495;28;20069;-35
2022/12/31 04:02:52;;;;;;;42.33;10.60;;;;;;;;;;5052329;28;20496;-35
2022/12/31 04:05:20;;;;;;;39.15;11.05;;;;;;;;;;5051132;28;20043;-35
2022/12/31 04:07:47;;;;;;;40.67;10.18;;;;;;;;;;5052209;28;20072;-35
2022/12/31 04:10:15;;;;;;;49.08;10.90;;;;;;;;;;5052226;28;20068;-36
2022/12/31 04:12:42;;;;;;;37.45;10.43;;;;;;;;;;5052218;28;20049;-35
2022/12/31 04:15:10;;;;;;;42.03;9.93;;;;;;;;;;5052142;28;20028;-35
2022/12/31 04:17:37;;;;;;;36.45;9.13;;;;;;;;;;5052189;28;20025;-35
2022/12/31 04:20:04;;;;;;;33.58;9.00;;;;;;;;;;5052054;28;20439;-35
2022/12/31 04:22:31;;;;;;;34.75;8.90;;;;;;;;;;5050636;28;20037;-35
2022/12/31 04:24:58;;;;;;;33.75;8.10;;;;;;;;;;5052118;28;20029;-35
2022/12/31 04:27:25;;;;;;;34.90;8.75;;;;;;;;;;5052107;28;20116;-36
2022/12/31 04:29:52;;;;;;;34.00;8.05;;;;;;;;;;5051950;28;20072;-35
2022/12/31 04:32:19;;;;;;;35.65;8.70;;;;;;;;;;5051877;28;20036;-35
2022/12/31 04:34:46;;;;;;;33.15;8.82;;;;;;;;;;5051991;28;20036;-36
2022/12/31 04:37:12;;;;;;;43.92;8.85;;;;;;;;;;5051586;28;20070;-35
2022/12/31 04:39:39;;;;;;;31.88;8.82;;;;;;;;;;5051982;28;20446;-35
2022/12/31 04:42:06;;;;;;;35.70;8.65;;;;;;;;;;5051688;28;20029;-35
2022/12/31 04:44:33;;;;;;;29.90;8.10;;;;;;;;;;5051577;28;20060;-35
2022/12/31 04:47:01;;;;;;;28.05;7.53;;;;;;;;;;5051662;28;20474;-36
2022/12/31 04:49:27;;;;;;;37.15;8.13;;;;;;;;;;5051787;28;20025;-35
2022/12/31 04:51:54;;;;;;;32.47;8.55;;;;;;;;;;5051733;28;20032;-35
2022/12/31 04:54:21;;;;;;;30.23;7.60;;;;;;;;;;5051784;28;20033;-35
2022/12/31 04:56:48;;;;;;;32.92;8.07;;;;;;;;;;5051654;28;20029;-35
2022/12/31 04:59:15;;;;;;;33.10;8.25;;;;;;;;;;5051749;28;20100;-35
2022/12/31 05:01:42;;;;;;;25.10;7.30;;;;;;;;;;5051466;28;20556;-35
2022/12/31 05:04:09;;;;;;;28.50;7.45;;;;;;;;;;5051556;28;20464;-37
2022/12/31 05:06:36;;;;;;;33.40;7.15;;;;;;;;;;5051728;28;20033;-35
2022/12/31 05:09:03;;;;;;;30.27;7.50;;;;;;;;;;5051582;28;20029;-35
2022/12/31 05:11:30;;;;;;;26.85;7.03;;;;;;;;;;5051483;28;20045;-36
2022/12/31 05:13:57;;;;;;;23.92;6.80;;;;;;;;;;5051557;28;20577;-35
2022/12/31 05:16:24;;;;;;;23.52;6.60;;;;;;;;;;5051521;28;20021;-35
2022/12/31 05:18:51;;;;;;;31.33;7.10;;;;;;;;;;5051587;28;20048;-35
2022/12/31 05:21:21;;;;;;;22.17;6.20;;;;;;;;;;5051557;28;20033;-35
2022/12/31 05:23:48;;;;;;;25.55;6.47;;;;;;;;;;5051454;28;20032;-35
2022/12/31 05:26:16;;;;;;;24.25;5.93;;;;;;;;;;5051471;28;20029;-35
2022/12/31 05:28:42;;;;;;;20.40;5.55;;;;;;;;;;5051338;28;20474;-35
2022/12/31 05:31:10;;;;;;;25.25;6.00;;;;;;;;;;5051424;28;20095;-35
2022/12/31 05:33:37;;;;;;;20.30;5.88;;;;;;;;;;5051352;28;20033;-35
2022/12/31 05:36:04;;;;;;;20.55;5.82;;;;;;;;;;5051380;28;20032;-35
2022/12/31 05:38:31;;;;;;;21.65;5.97;;;;;;;;;;5051372;28;20055;-35
2022/12/31 05:41:02;;;;;;;27.27;5.75;;;;;;;;;;5051245;28;20037;-35
2022/12/31 05:43:29;;;;;;;29.17;5.63;;;;;;;;;;5051064;28;20065;-35
2022/12/31 05:45:56;;;;;;;18.00;5.22;;;;;;;;;;5051345;28;20530;-35
2022/12/31 05:48:23;;;;;;;17.48;5.20;;;;;;;;;;5051305;28;20040;-35
2022/12/31 05:50:50;;;;;;;15.88;5.05;;;;;;;;;;5054397;28;20499;-35
2022/12/31 05:53:18;;;;;;;16.80;4.95;;;;;;;;;;5054858;28;20033;-35
2022/12/31 05:55:48;;;;;;;17.55;5.32;;;;;;;;;;5053370;28;20029;-35
2022/12/31 05:58:15;;;;;;;24.55;5.55;;;;;;;;;;5054741;28;20021;-35
2022/12/31 06:00:42;;;;;;;23.52;5.10;;;;;;;;;;5053431;28;20036;-37
2022/12/31 06:03:09;;;;;;;19.17;4.72;;;;;;;;;;5053915;28;20082;-35
2022/12/31 06:05:39;;;;;;;28.10;4.50;;;;;;;;;;5048165;28;20025;-36
2022/12/31 06:08:06;;;;;;;20.75;4.32;;;;;;;;;;5051402;28;20036;-35
2022/12/31 06:10:32;;;;;;;19.58;3.72;;;;;;;;;;5041013;28;20419;-36
2022/12/31 06:12:59;;;;;;;22.30;3.88;;;;;;;;;;5044094;28;20029;-36
2022/12/31 06:15:26;;;;;;;24.95;4.05;;;;;;;;;;5044427;28;20025;-35
2022/12/31 06:17:53;;;;;;;22.55;3.00;;;;;;;;;;5043245;28;20036;-34
2022/12/31 06:20:20;;;;;;;33.58;4.50;;;;;;;;;;5043623;28;20036;-34
2022/12/31 06:22:47;;;;;;;22.75;3.42;;;;;;;;;;5041055;28;20029;-34
2022/12/31 06:25:15;;;;;;;31.05;4.38;;;;;;;;;;5046260;28;20411;-35
2022/12/31 06:27:42;;;;;;;28.75;3.03;;;;;;;;;;5043780;28;20026;-34
2022/12/31 06:30:09;;;;;;;22.83;2.65;;;;;;;;;;5037153;28;20479;-34
2022/12/31 06:32:38;;;;;;;14.80;2.67;;;;;;;;;;5033870;28;20075;-34
2022/12/31 06:35:05;;;;;;;20.45;3.00;;;;;;;;;;5033927;28;20049;-34
2022/12/31 06:37:32;;;;;;;19.52;2.95;;;;;;;;;;5047170;28;20033;-34
2022/12/31 06:39:59;;;;;;;18.23;2.85;;;;;;;;;;5053916;28;20028;-34
2022/12/31 06:42:29;;;;;;;17.20;2.42;;;;;;;;;;5053815;28;20025;-34
2022/12/31 06:44:57;;;;;;;12.35;2.38;;;;;;;;;;5053613;28;20124;-34
2022/12/31 06:47:24;;;;;;;21.17;2.45;;;;;;;;;;5053752;28;20032;-34
2022/12/31 06:49:51;;;;;;;14.38;2.30;;;;;;;;;;5034852;28;20438;-34
2022/12/31 06:52:19;;;;;;;18.25;2.25;;;;;;;;;;5033732;28;20029;-34
2022/12/31 06:54:46;;;;;;;23.52;3.05;;;;;;;;;;5033827;28;20151;-34
2022/12/31 06:57:13;;;;;;;16.83;2.78;;;;;;;;;;5033700;28;20029;-34
2022/12/31 06:59:40;;;;;;;16.73;2.38;;;;;;;;;;5033389;28;20770;-34
2022/12/31 07:02:25;;;;;;;18.13;2.80;;;;;;;;;;5033594;28;20404;-34
2022/12/31 07:05:05;;;;;;;27.35;2.85;;;;;;;;;;5033668;28;20087;-34
2022/12/31 07:07:43;;;;;;;20.30;2.75;;;;;;;;;;5033447;28;20033;-34
2022/12/31 07:10:16;;;;;;;21.65;2.53;;;;;;;;;;5033524;28;20064;-34
2022/12/31 07:12:43;;;;;;;29.40;3.20;;;;;;;;;;5031942;28;20042;-34
2022/12/31 07:15:16;;;;;;;23.05;2.58;;;;;;;;;;5033490;28;20088;-34
2022/12/31 07:18:07;;;;;;;26.65;2.80;;;;;;;;;;5037533;28;20024;-34
2022/12/31 07:20:34;;;;;;;22.17;2.30;;;;;;;;;;5053255;28;20029;-34
2022/12/31 07:23:01;;;;;;;19.52;2.55;;;;;;;;;;5053185;28;20112;-34
2022/12/31 07:25:28;;;;;;;14.20;1.73;;;;;;;;;;5052757;28;20033;-34
2022/12/31 07:27:55;;;;;;;15.57;2.20;;;;;;;;;;5053071;28;20078;-34
2022/12/31 07:30:24;;;;;;;13.90;1.90;;;;;;;;;;5053064;28;20044;-34
2022/12/31 07:33:02;;;;;;;16.50;2.17;;;;;;;;;;5050897;28;20031;-34
2022/12/31 07:35:47;;;;;;;17.65;2.17;;;;;;;;;;5052819;28;20021;-34
2022/12/31 07:38:20;;;;;;;9.52;2.10;;;;;;;;;;5052715;28;20041;-34
2022/12/31 07:40:54;;;;;;;17.60;2.30;;;;;;;;;;5052777;28;20033;-34
2022/12/31 07:43:24;;;;;;;11.07;1.88;;;;;;;;;;5052498;28;20049;-34
2022/12/31 07:45:56;;;;;;;14.10;2.15;;;;;;;;;;5052548;28;20021;-34
2022/12/31 07:48:24;;;;;;;12.07;2.30;;;;;;;;;;5050640;28;20094;-34
2022/12/31 07:50:53;;;;;;;12.18;2.50;;;;;;;;;;5052628;28;20045;-34
2022/12/31 07:53:21;;;;;;;16.15;2.47;;;;;;;;;;5052296;28;20029;-34
2022/12/31 07:55:56;;;;;;;15.30;1.98;;;;;;;;;;5052653;28;20179;-34
2022/12/31 07:58:28;;;;;;;13.48;2.08;;;;;;;;;;5052413;28;20479;-34
2022/12/31 08:00:57;;;;;;;14.10;1.95;;;;;;;;;;5052326;28;20074;-34
2022/12/31 08:03:37;;;;;;;15.07;1.75;;;;;;;;;;5050622;28;20049;-34
2022/12/31 08:06:12;;;;;;;12.52;2.05;;;;;;;;;;5052408;28;20025;-34
2022/12/31 08:08:51;;;;;;;15.65;1.92;;;;;;;;;;5052355;28;20021;-34
2022/12/31 08:11:21;;;;;;;13.32;1.92;;;;;;;;;;5048652;28;20054;-34
2022/12/31 08:13:49;;;;;;;16.75;1.95;;;;;;;;;;5032039;28;20435;-34
2022/12/31 08:16:16;;;;;;;14.80;2.10;;;;;;;;;;5032157;28;20034;-35
2022/12/31 08:18:43;;;;;;;13.65;1.90;;;;;;;;;;5032357;28;20037;-34
2022/12/31 08:21:28;;;;;;;13.70;2.15;;;;;;;;;;5032286;28;20104;-34
2022/12/31 08:24:02;;;;;;;20.25;2.40;;;;;;;;;;5032248;28;20021;-34
2022/12/31 08:26:46;;;;;;;22.50;2.90;;;;;;;;;;5032276;28;20040;-34
2022/12/31 08:29:30;;;;;;;23.08;2.72;;;;;;;;;;5032266;28;20049;-34
2022/12/31 08:32:15;;;;;;;15.80;2.17;;;;;;;;;;5033902;28;20097;-35
2022/12/31 08:34:49;;;;;;;14.85;2.25;;;;;;;;;;5032077;28;20021;-34
2022/12/31 08:37:31;;;;;;;17.15;2.25;;;;;;;;;;5032365;28;20036;-34
2022/12/31 08:40:13;;;;;;;13.57;2.17;;;;;;;;;;5032001;28;20083;-34
2022/12/31 08:42:40;;;;;;;25.80;2.67;;;;;;;;;;5051003;28;20387;-34
2022/12/31 08:45:19;;;;;;;16.65;2.42;;;;;;;;;;5051709;28;20060;-34
2022/12/31 08:48:06;;;;;;;13.93;2.08;;;;;;;;;;5051933;28;20387;-34
2022/12/31 08:50:33;;;;;;;16.60;2.10;;;;;;;;;;5011332;28;20071;-34
2022/12/31 08:53:00;;;;;;;14.43;2.47;;;;;;;;;;5043948;28;20434;-34
2022/12/31 08:55:27;;;;;;;21.80;2.42;;;;;;;;;;5031847;28;20045;-34
2022/12/31 08:58:08;;;;;;;20.85;3.05;;;;;;;;;;5031948;28;20021;-34
2022/12/31 09:00:36;;;;;;;34.88;3.95;;;;;;;;;;5031772;28;20498;-34
2022/12/31 09:03:32;;;;;;;20.42;3.15;;;;;;;;;;5031855;28;20637;-34
2022/12/31 09:06:17;;;;;;;20.63;2.70;;;;;;;;;;5023207;28;20087;-34
2022/12/31 09:08:47;;;;;;;29.35;3.13;;;;;;;;;;5034436;28;20030;-34
2022/12/31 09:11:16;;;;;;;25.27;2.55;;;;;;;;;;5031634;28;20044;-34
2022/12/31 09:13:49;;;;;;;19.38;2.50;;;;;;;;;;5046618;28;20036;-34
2022/12/31 09:16:19;;;;;;;19.25;2.65;;;;;;;;;;5051518;28;20490;-34
2022/12/31 09:18:46;;;;;;;30.35;3.58;;;;;;;;;;5051605;28;20048;-34
2022/12/31 09:21:14;;;;;;;30.48;2.85;;;;;;;;;;5051365;28;20132;-34
2022/12/31 09:23:41;;;;;;;25.27;2.78;;;;;;;;;;5051247;28;20100;-34
2022/12/31 09:26:16;;;;;;;15.50;3.05;;;;;;;;;;5055278;28;20029;-34
2022/12/31 09:28:56;;;;;;;22.17;2.40;;;;;;;;;;5040369;28;20369;-34
2022/12/31 09:31:58;;;;;;;24.80;3.13;;;;;;;;;;5035158;28;20033;-34
2022/12/31 09:34:31;;;;;;;28.13;2.92;;;;;;;;;;4968143;28;20039;-34
2022/12/31 09:37:12;;;;;;;16.75;2.97;;;;;;;;;;5042031;28;20037;-34
2022/12/31 09:39:44;;;;;;;19.13;2.38;;;;;;;;;;5053500;28;20058;-34
2022/12/31 09:42:26;;;;;;;16.42;2.70;;;;;;;;;;5055038;28;20021;-34
2022/12/31 09:45:17;;;;;;;20.15;2.90;;;;;;;;;;5054895;28;20107;-34
2022/12/31 09:47:54;;;;;;;20.20;3.20;;;;;;;;;;5055016;28;20103;-34
2022/12/31 09:50:48;;;;;;;25.77;3.55;;;;;;;;;;5054895;28;20040;-34
2022/12/31 09:53:27;;;;;;;16.20;2.50;;;;;;;;;;5053124;28;20382;-35
2022/12/31 09:56:04;;;;;;;15.98;2.58;;;;;;;;;;5052029;28;20522;-34
2022/12/31 09:58:34;;;;;;;18.48;3.15;;;;;;;;;;5054813;28;20024;-34
2022/12/31 10:01:04;;;;;;;13.20;2.53;;;;;;;;;;5054597;28;20029;-34
2022/12/31 10:03:40;;;;;;;19.65;2.15;;;;;;;;;;5054801;28;20444;-34
2022/12/31 10:06:07;;;;;;;20.95;2.60;;;;;;;;;;5054578;28;20021;-34
2022/12/31 10:09:00;;;;;;;24.67;2.58;;;;;;;;;;5054610;28;20028;-34
2022/12/31 10:11:27;;;;;;;18.77;2.50;;;;;;;;;;5042218;28;20048;-34
2022/12/31 10:13:54;;;;;;;20.55;2.83;;;;;;;;;;5034626;28;20017;-34
2022/12/31 10:16:39;;;;;;;15.68;2.67;;;;;;;;;;5034548;28;20415;-34
2022/12/31 10:19:29;;;;;;;19.80;3.05;;;;;;;;;;5034526;28;20030;-34
2022/12/31 10:22:01;;;;;;;24.90;2.90;;;;;;;;;;5019231;28;20045;-34
2022/12/31 10:24:29;;;;;;;16.67;2.45;;;;;;;;;;5052876;28;20025;-34
2022/12/31 10:26:59;;;;;;;27.65;3.10;;;;;;;;;;5054195;28;20064;-34
2022/12/31 10:29:32;;;;;;;27.83;3.33;;;;;;;;;;5054056;28;20025;-35
2022/12/31 10:32:05;;;;;;;20.80;3.53;;;;;;;;;;5052968;28;20490;-34
2022/12/31 10:34:53;;;;;;;20.73;2.50;;;;;;;;;;5053819;28;20021;-34
2022/12/31 10:37:23;;;;;;;22.27;2.75;;;;;;;;;;5054117;28;20021;-34
2022/12/31 10:40:08;;;;;;;24.92;3.60;;;;;;;;;;5053576;28;20764;-35
2022/12/31 10:42:53;;;;;;;21.15;2.88;;;;;;;;;;5051644;28;20048;-34
2022/12/31 10:45:20;;;;;;;26.80;2.45;;;;;;;;;;5053784;28;20041;-34
2022/12/31 10:48:02;;;;;;;16.80;2.13;;;;;;;;;;5052205;28;20539;-34
2022/12/31 10:50:32;;;;;;;26.73;2.85;;;;;;;;;;5053341;28;20483;-34
2022/12/31 10:53:11;;;;;;;32.95;4.15;;;;;;;;;;5041004;28;20032;-34
2022/12/31 10:55:57;;;;;;;26.13;3.35;;;;;;;;;;5033871;28;20025;-34
2022/12/31 10:58:34;;;;;;;26.10;2.58;;;;;;;;;;5033806;28;20030;-34
2022/12/31 11:01:07;;;;;;;36.00;3.75;;;;;;;;;;5033577;28;20032;-34
2022/12/31 11:03:49;;;;;;;34.70;4.05;;;;;;;;;;5033845;28;20380;-34
2022/12/31 11:06:34;;;;;;;33.38;3.58;;;;;;;;;;5035590;28;20124;-34
2022/12/31 11:09:03;;;;;;;20.55;3.45;;;;;;;;;;5034485;28;20040;-34
2022/12/31 11:11:33;;;;;;;28.92;3.70;;;;;;;;;;5036672;28;20471;-34
2022/12/31 11:14:07;;;;;;;38.42;3.60;;;;;;;;;;5033588;28;20037;-34
2022/12/31 11:16:33;;;;;;;35.83;3.60;;;;;;;;;;5033410;28;20029;-34
2022/12/31 11:19:03;;;;;;;35.25;3.63;;;;;;;;;;5031987;28;20021;-34
2022/12/31 11:21:48;;;;;;;36.35;4.03;;;;;;;;;;5035639;28;20026;-34
2022/12/31 11:24:18;;;;;;;27.00;3.47;;;;;;;;;;5051242;28;20028;-34
2022/12/31 11:26:45;;;;;;;65.32;4.07;;;;;;;;;;5053070;28;20021;-34
2022/12/31 11:29:18;;;;;;;40.90;4.13;;;;;;;;;;5052754;28;20449;-35
2022/12/31 11:32:05;;;;;;;41.35;3.83;;;;;;;;;;5048689;28;20041;-34
2022/12/31 11:34:32;;;;;;;35.22;2.67;;;;;;;;;;5026220;28;20476;-34
2022/12/31 11:37:27;;;;;;;32.35;3.13;;;;;;;;;;5033041;28;20029;-34
2022/12/31 11:40:06;;;;;;;25.60;2.50;;;;;;;;;;5032799;28;20080;-34
2022/12/31 11:42:51;;;;;;;36.83;3.30;;;;;;;;;;5038854;28;20467;-34
2022/12/31 11:45:36;;;;;;;22.27;2.75;;;;;;;;;;5052743;28;20522;-35
2022/12/31 11:48:36;;;;;;;39.50;3.72;;;;;;;;;;5048230;28;20037;-34
2022/12/31 11:51:15;;;;;;;41.28;4.28;;;;;;;;;;5006656;28;20056;-34
2022/12/31 11:53:53;;;;;;;29.40;3.38;;;;;;;;;;5050876;28;20039;-35
2022/12/31 11:56:28;;;;;;;39.45;5.88;;;;;;;;;;5052717;28;20491;-34
2022/12/31 11:58:56;;;;;;;43.15;4.50;;;;;;;;;;5050608;28;20079;-34
2022/12/31 12:01:26;;;;;;;38.50;4.57;;;;;;;;;;5052237;28;20461;-34
2022/12/31 12:03:53;;;;;;;33.13;3.50;;;;;;;;;;5052364;28;20031;-34
2022/12/31 12:06:25;;;;;;;36.22;4.65;;;;;;;;;;5052335;28;20029;-34
2022/12/31 12:08:52;;;;;;;40.95;4.72;;;;;;;;;;5047647;28;20060;-34
2022/12/31 12:11:25;;;;;;;36.03;3.97;;;;;;;;;;5052192;28;20375;-34
2022/12/31 12:13:52;;;;;;;40.67;4.68;;;;;;;;;;5052302;28;20063;-34
2022/12/31 12:16:21;;;;;;;36.33;4.15;;;;;;;;;;5047410;28;20438;-34
2022/12/31 12:19:01;;;;;;;39.28;4.28;;;;;;;;;;5039557;28;20030;-34
2022/12/31 12:21:28;;;;;;;38.55;3.97;;;;;;;;;;5032262;28;20049;-34
2022/12/31 12:24:06;;;;;;;38.55;3.60;;;;;;;;;;5032282;28;20025;-34
2022/12/31 12:26:40;;;;;;;31.42;4.30;;;;;;;;;;5032236;28;20045;-34
2022/12/31 12:29:10;;;;;;;34.15;3.53;;;;;;;;;;5034078;28;20028;-34
2022/12/31 12:31:37;;;;;;;40.60;3.58;;;;;;;;;;5031999;28;20034;-34
2022/12/31 12:34:05;;;;;;;36.08;4.10;;;;;;;;;;5032132;28;20026;-34
2022/12/31 12:36:32;;;;;;;42.15;4.95;;;;;;;;;;5031998;28;20503;-34
2022/12/31 12:39:04;;;;;;;42.13;4.82;;;;;;;;;;5040456;28;20471;-34
2022/12/31 12:41:31;;;;;;;42.63;5.15;;;;;;;;;;5051803;28;20062;-34
2022/12/31 12:44:06;;;;;;;41.95;5.28;;;;;;;;;;5051762;28;20053;-34
2022/12/31 12:46:43;;;;;;;38.63;5.63;;;;;;;;;;5051636;28;20032;-34
2022/12/31 12:49:27;;;;;;;40.45;4.65;;;;;;;;;;5046354;28;20127;-34
2022/12/31 12:51:54;;;;;;;39.47;4.90;;;;;;;;;;5051512;28;20036;-34
2022/12/31 12:54:24;;;;;;;33.42;4.65;;;;;;;;;;5051700;28;20107;-34
2022/12/31 12:57:09;;;;;;;43.20;4.15;;;;;;;;;;5051740;28;20019;-34
2022/12/31 12:59:39;;;;;;;40.13;3.97;;;;;;;;;;5050539;28;20446;-35
2022/12/31 13:02:12;;;;;;;42.55;4.80;;;;;;;;;;5053836;28;20032;-35
2022/12/31 13:04:52;;;;;;;45.22;6.00;;;;;;;;;;5036702;28;20104;-34
2022/12/31 13:07:27;;;;;;;50.00;5.28;;;;;;;;;;5036781;28;20100;-35
2022/12/31 13:09:57;;;;;;;29.77;4.22;;;;;;;;;;5045180;28;20033;-34
2022/12/31 13:12:27;;;;;;;41.60;4.47;;;;;;;;;;5055568;28;20487;-34
2022/12/31 13:15:14;;;;;;;53.25;4.82;;;;;;;;;;5055586;28;20064;-34
2022/12/31 13:17:59;;;;;;;37.53;4.80;;;;;;;;;;5041804;28;20053;-34
2022/12/31 13:20:32;;;;;;;29.30;4.05;;;;;;;;;;5050770;28;20076;-34
2022/12/31 13:23:07;;;;;;;37.72;4.05;;;;;;;;;;5053665;28;20036;-34
2022/12/31 13:25:37;;;;;;;33.47;4.05;;;;;;;;;;5055483;28;20085;-34
2022/12/31 13:28:06;;;;;;;32.50;4.00;;;;;;;;;;5044634;28;20033;-34
2022/12/31 13:30:41;;;;;;;32.85;3.95;;;;;;;;;;5041311;28;20047;-34
2022/12/31 13:33:17;;;;;;;29.30;3.50;;;;;;;;;;5041643;28;20037;-34
2022/12/31 13:36:10;;;;;;;26.67;3.40;;;;;;;;;;5041757;28;20087;-34
2022/12/31 13:38:48;;;;;;;23.08;4.13;;;;;;;;;;5039480;28;20037;-34
2022/12/31 13:41:21;;;;;;;27.77;3.72;;;;;;;;;;5040193;28;20056;-34
2022/12/31 13:44:00;;;;;;;27.80;3.60;;;;;;;;;;5038327;28;20043;-34
2022/12/31 13:46:39;;;;;;;27.75;4.30;;;;;;;;;;5046658;28;20387;-34
2022/12/31 13:49:12;;;;;;;18.75;3.65;;;;;;;;;;5042535;28;20107;-35
2022/12/31 13:51:47;;;;;;;27.65;3.15;;;;;;;;;;5045005;28;20037;-35
2022/12/31 13:54:33;;;;;;;24.90;4.03;;;;;;;;;;5047514;28;20056;-35
2022/12/31 13:57:02;;;;;;;16.58;3.22;;;;;;;;;;5049119;28;20039;-35
2022/12/31 13:59:31;;;;;;;22.58;3.63;;;;;;;;;;5034854;28;20026;-35
2022/12/31 14:02:01;;;;;;;21.63;3.25;;;;;;;;;;5038831;28;20108;-35
2022/12/31 14:04:31;;;;;;;22.58;3.78;;;;;;;;;;5044252;28;20112;-35
2022/12/31 14:07:01;;;;;;;23.25;3.47;;;;;;;;;;5051896;28;20025;-36
2022/12/31 14:09:30;;;;;;;32.17;4.30;;;;;;;;;;5049669;28;20033;-36
2022/12/31 14:12:16;;;;;;;28.42;3.83;;;;;;;;;;5048414;28;20037;-35
2022/12/31 14:14:52;;;;;;;22.30;3.40;;;;;;;;;;5053500;28;20032;-35
2022/12/31 14:17:19;;;;;;;23.92;4.18;;;;;;;;;;5053417;28;20090;-35
2022/12/31 14:20:02;;;;;;;25.08;4.22;;;;;;;;;;5052810;28;20036;-35
2022/12/31 14:22:29;;;;;;;25.67;3.97;;;;;;;;;;5049985;28;20074;-35
2022/12/31 14:24:57;;;;;;;31.25;4.20;;;;;;;;;;5050986;28;20094;-35
2022/12/31 14:27:29;;;;;;;28.70;3.85;;;;;;;;;;5042894;28;20025;-35
2022/12/31 14:30:02;;;;;;;27.52;4.60;;;;;;;;;;5052523;28;20037;-35
2022/12/31 14:32:38;;;;;;;26.52;4.15;;;;;;;;;;5035558;28;20044;-35
2022/12/31 14:35:17;;;;;;;28.88;4.53;;;;;;;;;;5040443;28;20029;-35
2022/12/31 14:37:53;;;;;;;31.00;4.97;;;;;;;;;;5042153;28;20033;-35
2022/12/31 14:40:20;;;;;;;22.35;4.10;;;;;;;;;;5035871;28;20055;-35
2022/12/31 14:42:50;;;;;;;31.80;4.15;;;;;;;;;;5044479;28;20033;-36
2022/12/31 14:45:42;;;;;;;38.97;5.22;;;;;;;;;;5042685;28;20041;-35
2022/12/31 14:48:27;;;;;;;34.63;4.72;;;;;;;;;;5040388;28;20112;-35
2022/12/31 14:50:54;;;;;;;32.95;5.45;;;;;;;;;;5045131;28;20032;-35
2022/12/31 14:53:23;;;;;;;28.95;4.97;;;;;;;;;;5048991;28;20039;-35
2022/12/31 14:55:57;;;;;;;27.55;4.65;;;;;;;;;;5043046;28;20048;-35
2022/12/31 14:58:30;;;;;;;34.58;4.95;;;;;;;;;;5038918;28;20379;-35
2022/12/31 15:01:26;;;;;;;36.40;5.07;;;;;;;;;;5038359;28;20163;-35
2022/12/31 15:03:57;;;;;;;31.35;5.22;;;;;;;;;;5027604;28;20042;-35